Time;durP1;ratioP1;P1;durP2;ratioP2;P2;SDS_P1;SDS_P2;PMS_P1;PMS_P2;Temp;Humidity;BMP_temperature;BMP_pressure;BME280_temperature;BME280_humidity;BME280_pressure;Samples;Min_cycle;Max_cycle;Signal;HPM_P1;HPM_P2
2024/01/19 00:00:41;;;;;;;7.38;3.67;;;19.40;48.30;;;;;;5067807;28;20426;-48
2024/01/19 00:03:06;;;;;;;10.70;4.13;;;19.40;48.20;;;;;;5067729;28;20035;-52
2024/01/19 00:05:32;;;;;;;10.00;3.72;;;19.40;49.60;;;;;;5067368;28;20108;-50
2024/01/19 00:07:58;;;;;;;19.98;4.35;;;19.40;48.30;;;;;;5067622;28;20102;-51
2024/01/19 00:10:24;;;;;;;16.23;4.63;;;19.40;51.90;;;;;;5064513;28;20036;-54
2024/01/19 00:12:49;;;;;;;8.07;3.83;;;19.50;52.50;;;;;;5071169;28;20191;-56
2024/01/19 00:15:15;;;;;;;10.23;3.88;;;19.40;49.90;;;;;;5062948;28;20039;-54
2024/01/19 00:17:41;;;;;;;22.83;4.50;;;19.40;49.50;;;;;;5068392;28;20032;-54
2024/01/19 00:20:10;;;;;;;9.18;3.75;;;19.40;49.90;;;;;;5064297;28;20181;-50
2024/01/19 00:22:36;;;;;;;12.85;3.97;;;19.40;49.70;;;;;;5064099;28;20025;-48
2024/01/19 00:25:02;;;;;;;10.93;3.72;;;19.40;50.00;;;;;;5058328;28;20043;-51
2024/01/19 00:27:31;;;;;;;10.85;3.70;;;19.40;50.20;;;;;;5060842;28;20025;-51
2024/01/19 00:29:57;;;;;;;13.82;4.15;;;19.40;50.30;;;;;;5059498;28;20021;-47
2024/01/19 00:32:23;;;;;;;9.07;3.45;;;19.40;50.00;;;;;;5050542;28;20515;-48
2024/01/19 00:34:49;;;;;;;8.63;3.55;;;19.40;50.20;;;;;;5067753;28;20441;-53
2024/01/19 00:37:15;;;;;;;12.07;3.75;;;19.30;50.40;;;;;;5059344;28;20021;-49
2024/01/19 00:39:41;;;;;;;10.75;3.85;;;19.30;49.80;;;;;;5070351;28;20046;-50
2024/01/19 00:42:07;;;;;;;9.85;3.67;;;19.30;50.00;;;;;;5054462;28;20480;-54
2024/01/19 00:44:33;;;;;;;10.80;3.92;;;19.30;50.10;;;;;;5058496;28;20029;-56
2024/01/19 00:46:58;;;;;;;9.45;3.38;;;19.30;50.10;;;;;;5060258;28;20576;-52
2024/01/19 00:49:24;;;;;;;9.02;3.92;;;19.30;50.00;;;;;;5069860;28;20104;-51
2024/01/19 00:51:50;;;;;;;10.23;4.03;;;19.20;49.90;;;;;;5053616;28;20029;-54
2024/01/19 00:54:16;;;;;;;14.57;3.33;;;19.20;50.40;;;;;;5049426;28;20396;-51
2024/01/19 00:56:42;;;;;;;6.78;3.00;;;19.20;50.20;;;;;;5050008;28;20029;-51
2024/01/19 00:59:08;;;;;;;10.98;3.40;;;19.20;50.40;;;;;;5055536;28;20032;-51
2024/01/19 01:01:34;;;;;;;10.32;3.38;;;19.20;50.00;;;;;;5069370;28;20040;-51
2024/01/19 01:04:02;;;;;;;13.75;3.80;;;19.30;50.20;;;;;;5073315;28;20070;-51
2024/01/19 01:06:28;;;;;;;7.32;3.20;;;19.30;50.20;;;;;;5073133;28;20029;-48
2024/01/19 01:08:54;;;;;;;18.83;3.33;;;19.30;50.70;;;;;;5073347;28;20031;-51
2024/01/19 01:11:21;;;;;;;26.55;4.07;;;19.30;50.70;;;;;;5073081;28;20077;-48
2024/01/19 01:13:47;;;;;;;10.85;3.65;;;19.30;50.20;;;;;;5073119;28;20028;-50
2024/01/19 01:16:13;;;;;;;17.90;3.42;;;19.30;50.50;;;;;;5072822;28;20509;-50
2024/01/19 01:18:40;;;;;;;12.50;3.58;;;19.30;49.90;;;;;;5073171;28;20062;-49
2024/01/19 01:21:06;;;;;;;11.55;3.05;;;19.30;49.60;;;;;;5073057;28;20024;-48
2024/01/19 01:23:32;;;;;;;9.80;3.28;;;19.30;50.50;;;;;;5073111;28;20111;-50
2024/01/19 01:25:58;;;;;;;7.95;3.08;;;19.30;49.60;;;;;;5072728;28;20426;-50
2024/01/19 01:28:24;;;;;;;9.00;2.90;;;19.30;49.30;;;;;;5072008;28;20039;-48
2024/01/19 01:30:50;;;;;;;11.23;3.40;;;19.30;50.30;;;;;;5072758;28;20087;-51
2024/01/19 01:33:16;;;;;;;8.98;3.28;;;19.30;50.20;;;;;;5071489;28;20033;-48
2024/01/19 01:35:41;;;;;;;6.55;3.00;;;19.30;50.10;;;;;;5072682;28;20040;-51
2024/01/19 01:38:07;;;;;;;9.77;3.45;;;19.30;49.10;;;;;;5072745;28;20028;-48
2024/01/19 01:40:33;;;;;;;12.02;3.97;;;19.30;49.20;;;;;;5072610;28;20025;-50
2024/01/19 01:43:04;;;;;;;9.13;3.67;;;19.30;49.30;;;;;;5072500;28;20044;-51
2024/01/19 01:45:30;;;;;;;7.95;3.22;;;19.20;49.40;;;;;;5072187;28;20408;-51
2024/01/19 01:47:56;;;;;;;8.27;3.28;;;19.20;49.40;;;;;;5072516;28;20031;-53
2024/01/19 01:50:23;;;;;;;9.43;3.10;;;19.20;49.40;;;;;;5071185;28;20090;-50
2024/01/19 01:52:53;;;;;;;6.95;2.75;;;19.20;49.40;;;;;;5072342;28;20082;-49
2024/01/19 01:55:18;;;;;;;;;;;19.20;49.10;;;;;;5072518;28;20434;-49
2024/01/19 01:57:46;;;;;;;15.65;2.85;;;19.20;49.20;;;;;;5072360;28;19913;-51
2024/01/19 02:00:14;;;;;;;6.88;2.78;;;19.20;49.10;;;;;;5072473;28;20403;-49
2024/01/19 02:02:40;;;;;;;6.25;3.00;;;19.20;49.40;;;;;;5072195;28;20123;-50
2024/01/19 02:05:06;;;;;;;6.63;2.60;;;19.20;49.60;;;;;;5072085;28;20403;-47
2024/01/19 02:07:32;;;;;;;6.43;2.88;;;19.20;49.10;;;;;;5072243;28;20046;-48
2024/01/19 02:09:58;;;;;;;9.10;2.63;;;19.20;49.10;;;;;;5072162;28;20023;-48
2024/01/19 02:12:24;;;;;;;6.57;3.20;;;19.20;49.00;;;;;;5071981;28;20095;-48
2024/01/19 02:14:51;;;;;;;11.85;2.80;;;19.20;48.80;;;;;;5071755;28;20025;-57
2024/01/19 02:17:16;;;;;;;6.78;3.13;;;19.20;49.10;;;;;;5072119;28;20415;-52
2024/01/19 02:19:42;;;;;;;6.75;2.80;;;19.20;49.10;;;;;;5072060;28;20032;-47
2024/01/19 02:22:08;;;;;;;5.90;3.03;;;19.20;48.80;;;;;;5070610;28;20063;-49
2024/01/19 02:24:35;;;;;;;14.50;3.03;;;19.20;49.00;;;;;;5071850;28;20031;-51
2024/01/19 02:27:02;;;;;;;8.50;2.88;;;19.20;49.80;;;;;;5071495;28;20056;-47
2024/01/19 02:29:28;;;;;;;7.50;2.92;;;19.20;49.70;;;;;;5071796;28;20055;-52
2024/01/19 02:31:54;;;;;;;8.18;2.70;;;19.20;49.60;;;;;;5071526;28;20036;-51
2024/01/19 02:34:20;;;;;;;6.85;2.85;;;19.20;49.60;;;;;;5071741;28;20021;-52
2024/01/19 02:36:45;;;;;;;5.90;2.70;;;19.20;49.50;;;;;;5071500;28;20545;-54
2024/01/19 02:39:11;;;;;;;7.35;2.88;;;19.10;49.50;;;;;;5071483;28;20396;-53
2024/01/19 02:41:39;;;;;;;8.80;2.85;;;19.10;49.80;;;;;;5071702;28;20035;-49
2024/01/19 02:44:05;;;;;;;12.48;2.63;;;19.20;49.40;;;;;;5071776;28;20120;-52
2024/01/19 02:46:31;;;;;;;6.43;2.67;;;19.10;49.30;;;;;;5071344;28;20103;-49
2024/01/19 02:48:57;;;;;;;6.35;2.47;;;19.20;49.40;;;;;;5071653;28;20507;-48
2024/01/19 02:51:23;;;;;;;7.35;3.05;;;19.20;49.40;;;;;;5071598;28;20507;-50
2024/01/19 02:53:48;;;;;;;8.48;2.60;;;19.20;49.40;;;;;;5071607;28;20024;-48
2024/01/19 02:56:14;;;;;;;6.07;2.47;;;19.20;49.50;;;;;;5071244;28;20028;-53
2024/01/19 02:58:40;;;;;;;5.13;2.50;;;19.20;49.80;;;;;;5071477;28;20031;-53
2024/01/19 03:01:08;;;;;;;4.70;2.47;;;19.20;49.40;;;;;;5071500;28;20028;-54
2024/01/19 03:03:34;;;;;;;12.48;3.00;;;19.20;49.40;;;;;;5071636;28;20051;-55
2024/01/19 03:06:00;;;;;;;5.30;2.70;;;19.20;49.30;;;;;;5071100;28;20546;-49
2024/01/19 03:08:25;;;;;;;5.03;2.25;;;19.20;49.40;;;;;;5071444;28;20645;-53
2024/01/19 03:10:51;;;;;;;6.53;2.33;;;19.20;49.30;;;;;;5071288;28;20016;-50
2024/01/19 03:13:17;;;;;;;6.50;2.80;;;19.20;48.80;;;;;;5071364;28;20044;-47
2024/01/19 03:15:43;;;;;;;6.22;2.83;;;19.20;48.90;;;;;;5071109;28;20078;-49
2024/01/19 03:18:09;;;;;;;5.40;2.30;;;19.10;49.20;;;;;;5071325;28;20062;-51
2024/01/19 03:20:35;;;;;;;7.57;2.47;;;19.20;48.90;;;;;;5071399;28;20442;-47
2024/01/19 03:23:01;;;;;;;5.22;2.45;;;19.10;49.00;;;;;;5071384;28;20025;-50
2024/01/19 03:25:26;;;;;;;4.78;1.90;;;19.20;49.10;;;;;;5070844;28;20070;-56
2024/01/19 03:27:52;;;;;;;6.93;2.30;;;19.20;49.10;;;;;;5071283;28;20150;-50
2024/01/19 03:30:18;;;;;;;4.60;2.13;;;19.10;49.20;;;;;;5071179;28;20100;-56
2024/01/19 03:32:44;;;;;;;6.68;2.72;;;19.10;49.20;;;;;;5070999;28;20055;-50
2024/01/19 03:35:09;;;;;;;4.55;2.10;;;19.10;49.00;;;;;;5070603;28;20060;-49
2024/01/19 03:37:35;;;;;;;3.22;2.05;;;19.20;49.20;;;;;;5071166;28;20028;-53
2024/01/19 03:40:01;;;;;;;7.72;2.30;;;19.10;49.20;;;;;;5071058;28;20037;-50
2024/01/19 03:42:28;;;;;;;5.68;2.63;;;19.20;49.50;;;;;;5071134;28;20025;-51
2024/01/19 03:44:54;;;;;;;4.30;2.28;;;19.20;49.40;;;;;;5070855;28;20043;-49
2024/01/19 03:47:19;;;;;;;4.80;2.20;;;19.10;49.30;;;;;;5071070;28;20020;-48
2024/01/19 03:49:45;;;;;;;3.97;2.08;;;19.10;49.20;;;;;;5070786;28;20020;-48
2024/01/19 03:52:11;;;;;;;5.35;2.38;;;19.20;49.40;;;;;;5072898;28;20032;-48
2024/01/19 03:54:37;;;;;;;4.43;2.15;;;19.20;49.50;;;;;;5074696;28;20056;-51
2024/01/19 03:57:05;;;;;;;4.32;2.15;;;19.20;49.30;;;;;;5074294;28;20376;-50
2024/01/19 03:59:31;;;;;;;6.05;2.25;;;19.20;48.80;;;;;;5074611;28;20063;-50
2024/01/19 04:01:57;;;;;;;4.63;2.00;;;19.20;49.00;;;;;;5074525;28;20047;-50
2024/01/19 04:04:24;;;;;;;5.00;2.10;;;19.20;49.30;;;;;;5074573;28;20032;-52
2024/01/19 04:06:50;;;;;;;6.50;2.10;;;19.20;49.10;;;;;;5074215;28;20514;-48
2024/01/19 04:09:16;;;;;;;5.72;2.40;;;19.20;49.30;;;;;;5074510;28;20027;-48
2024/01/19 04:11:43;;;;;;;5.95;2.10;;;19.20;49.30;;;;;;5074337;28;20056;-49
2024/01/19 04:14:09;;;;;;;4.25;2.10;;;19.20;48.90;;;;;;5074303;28;20024;-53
2024/01/19 04:16:35;;;;;;;3.40;2.08;;;19.20;49.00;;;;;;5074021;28;20069;-51
2024/01/19 04:19:02;;;;;;;4.38;2.30;;;19.20;50.10;;;;;;5074304;28;20543;-51
2024/01/19 04:21:29;;;;;;;5.05;2.20;;;19.20;48.80;;;;;;5074226;28;20021;-49
2024/01/19 04:23:56;;;;;;;3.50;2.13;;;19.20;49.00;;;;;;5074257;28;20553;-52
2024/01/19 04:26:22;;;;;;;5.88;2.20;;;19.20;49.20;;;;;;5073828;28;20029;-53
2024/01/19 04:28:47;;;;;;;6.03;2.67;;;19.20;49.50;;;;;;5074064;28;20021;-55
2024/01/19 04:31:13;;;;;;;5.38;2.03;;;19.20;48.80;;;;;;5073842;28;20137;-53
2024/01/19 04:33:39;;;;;;;6.43;2.55;;;19.20;48.80;;;;;;5074061;28;20038;-48
2024/01/19 04:36:05;;;;;;;4.75;2.17;;;19.20;48.60;;;;;;5073749;28;20373;-48
2024/01/19 04:38:31;;;;;;;5.20;2.10;;;19.20;48.70;;;;;;5073877;28;20036;-53
2024/01/19 04:40:57;;;;;;;5.30;2.42;;;19.20;49.60;;;;;;5073827;28;20047;-49
2024/01/19 04:43:23;;;;;;;4.32;2.28;;;19.20;48.90;;;;;;5073893;28;20568;-50
2024/01/19 04:45:49;;;;;;;5.65;2.15;;;19.20;48.90;;;;;;5073665;28;20036;-47
2024/01/19 04:48:14;;;;;;;4.20;2.00;;;19.20;48.90;;;;;;5073774;28;20503;-52
2024/01/19 04:50:40;;;;;;;3.60;2.00;;;19.20;48.70;;;;;;5072509;28;20021;-49
2024/01/19 04:53:06;;;;;;;6.65;2.28;;;19.20;48.50;;;;;;5073506;28;20024;-49
2024/01/19 04:55:32;;;;;;;4.00;2.15;;;19.20;48.80;;;;;;5073268;28;20037;-53
2024/01/19 04:57:57;;;;;;;6.13;2.13;;;19.20;49.00;;;;;;5073526;28;20033;-52
2024/01/19 05:00:23;;;;;;;5.97;2.20;;;19.20;48.70;;;;;;5073575;28;20029;-52
2024/01/19 05:02:50;;;;;;;7.70;2.60;;;19.20;49.00;;;;;;5073378;28;20309;-48
2024/01/19 05:05:16;;;;;;;6.93;2.22;;;19.20;48.70;;;;;;5073219;28;20102;-48
2024/01/19 05:07:42;;;;;;;5.40;2.15;;;19.20;48.70;;;;;;5073996;28;20020;-51
2024/01/19 05:10:08;;;;;;;5.68;2.25;;;19.20;48.90;;;;;;5073336;28;20025;-51
2024/01/19 05:12:34;;;;;;;6.00;2.15;;;19.20;48.40;;;;;;5073552;28;20407;-47
2024/01/19 05:15:00;;;;;;;4.13;2.22;;;19.20;48.50;;;;;;5073000;28;20047;-53
2024/01/19 05:17:26;;;;;;;5.65;2.17;;;19.20;48.80;;;;;;5073119;28;20031;-50
2024/01/19 05:19:51;;;;;;;5.13;2.38;;;19.20;48.70;;;;;;5073162;28;20025;-50
2024/01/19 05:22:17;;;;;;;6.75;2.10;;;19.20;48.60;;;;;;5072984;28;20024;-50
2024/01/19 05:24:44;;;;;;;6.03;2.38;;;19.20;48.60;;;;;;5072880;28;20037;-50
2024/01/19 05:27:10;;;;;;;4.03;2.30;;;19.20;48.80;;;;;;5072902;28;20032;-48
2024/01/19 05:29:36;;;;;;;6.15;2.50;;;19.20;48.40;;;;;;5073021;28;20150;-51
2024/01/19 05:32:03;;;;;;;5.60;2.40;;;19.20;48.50;;;;;;5086538;22;20130;-59
2024/01/19 05:34:29;;;;;;;5.53;2.63;;;19.20;48.40;;;;;;5052561;28;20028;-58
2024/01/19 05:36:55;;;;;;;6.00;2.40;;;19.20;48.70;;;;;;5052245;28;20021;-59
2024/01/19 05:39:21;;;;;;;8.30;2.65;;;19.20;48.40;;;;;;5052799;28;20048;-59
2024/01/19 05:41:46;;;;;;;4.13;2.47;;;19.20;48.60;;;;;;5051324;28;20526;-59
2024/01/19 05:44:12;;;;;;;3.63;2.40;;;19.20;48.40;;;;;;5052649;28;20033;-60
2024/01/19 05:46:38;;;;;;;8.43;2.55;;;19.20;48.70;;;;;;5052524;28;20544;-59
2024/01/19 05:49:04;;;;;;;5.47;2.20;;;19.20;48.60;;;;;;5052693;28;20029;-59
2024/01/19 05:51:31;;;;;;;7.90;3.20;;;19.20;48.40;;;;;;5052521;28;20047;-59
2024/01/19 05:53:58;;;;;;;9.43;2.75;;;19.20;48.90;;;;;;5052588;28;20040;-59
2024/01/19 05:56:24;;;;;;;4.50;2.15;;;19.20;48.90;;;;;;5052114;28;20036;-59
2024/01/19 05:58:50;;;;;;;4.85;2.70;;;19.20;48.80;;;;;;5052403;28;20087;-59
2024/01/19 06:01:16;;;;;;;12.93;2.80;;;19.20;48.80;;;;;;5052375;28;20037;-56
2024/01/19 06:03:42;;;;;;;6.93;2.30;;;19.20;48.70;;;;;;5052326;28;20028;-59
2024/01/19 06:06:08;;;;;;;12.07;3.17;;;19.30;48.60;;;;;;5051921;28;20037;-59
2024/01/19 06:08:33;;;;;;;6.70;2.80;;;19.20;48.70;;;;;;5052480;28;20024;-59
2024/01/19 06:10:59;;;;;;;5.80;2.50;;;19.20;48.80;;;;;;5052079;28;20166;-59
2024/01/19 06:13:25;;;;;;;7.55;2.83;;;19.20;48.60;;;;;;5052287;28;20021;-59
2024/01/19 06:15:51;;;;;;;5.53;2.47;;;19.20;48.60;;;;;;5051354;28;20427;-58
2024/01/19 06:18:17;;;;;;;15.40;3.15;;;19.20;48.80;;;;;;5052105;28;20033;-59
2024/01/19 06:20:43;;;;;;;6.38;2.78;;;19.20;48.70;;;;;;5051920;28;20025;-59
2024/01/19 06:23:13;;;;;;;6.45;2.70;;;19.20;49.30;;;;;;5051950;28;20033;-59
2024/01/19 06:25:40;;;;;;;8.50;2.70;;;19.20;48.70;;;;;;5051415;28;20037;-59
2024/01/19 06:28:06;;;;;;;5.50;2.67;;;19.20;49.00;;;;;;5051955;28;20040;-59
2024/01/19 06:30:32;;;;;;;4.40;2.47;;;19.20;48.80;;;;;;5051901;28;20031;-59
2024/01/19 06:32:58;;;;;;;6.38;2.50;;;19.20;48.60;;;;;;5051589;28;20029;-60
2024/01/19 06:35:24;;;;;;;5.93;2.70;;;19.20;48.70;;;;;;5051518;28;20091;-59
2024/01/19 06:37:50;;;;;;;6.22;2.80;;;19.20;48.80;;;;;;5051808;28;20029;-57
2024/01/19 06:40:16;;;;;;;5.95;2.50;;;19.20;48.60;;;;;;5051644;28;20195;-59
2024/01/19 06:42:45;;;;;;;5.82;2.63;;;19.20;48.70;;;;;;5052029;28;20029;-58
2024/01/19 06:45:11;;;;;;;5.25;2.67;;;19.20;48.60;;;;;;5051349;28;20071;-59
2024/01/19 06:47:38;;;;;;;7.00;2.88;;;19.20;48.70;;;;;;5051666;28;20082;-59
2024/01/19 06:50:04;;;;;;;9.05;3.17;;;19.20;48.70;;;;;;5051699;28;20048;-58
2024/01/19 06:52:30;;;;;;;9.25;2.63;;;19.20;49.00;;;;;;5051465;28;20033;-57
2024/01/19 06:54:55;;;;;;;8.43;2.83;;;19.20;48.70;;;;;;5051172;28;20036;-58
2024/01/19 06:57:21;;;;;;;7.10;3.00;;;19.20;48.50;;;;;;5051520;28;20083;-60
2024/01/19 06:59:47;;;;;;;6.07;2.72;;;19.10;48.50;;;;;;5051517;28;20393;-57
2024/01/19 07:02:13;;;;;;;9.27;3.00;;;19.20;48.70;;;;;;5051337;28;20025;-59
2024/01/19 07:04:39;;;;;;;8.82;3.03;;;19.20;48.60;;;;;;5050409;28;20033;-60
2024/01/19 07:07:04;;;;;;;6.60;3.10;;;19.20;48.50;;;;;;5050328;28;20396;-59
2024/01/19 07:09:30;;;;;;;8.40;3.00;;;19.20;48.60;;;;;;5051286;28;20029;-57
2024/01/19 07:11:56;;;;;;;7.40;3.17;;;19.10;48.30;;;;;;5051260;28;20029;-59
2024/01/19 07:14:22;;;;;;;6.10;3.00;;;19.20;48.40;;;;;;5051382;28;20091;-59
2024/01/19 07:16:47;;;;;;;5.70;2.85;;;19.10;48.40;;;;;;5050958;28;20048;-59
2024/01/19 07:19:13;;;;;;;6.93;3.63;;;19.10;48.40;;;;;;5051338;28;20033;-59
2024/01/19 07:21:41;;;;;;;6.32;3.28;;;19.20;48.50;;;;;;5051195;28;20025;-59
2024/01/19 07:24:07;;;;;;;8.40;3.30;;;19.20;48.70;;;;;;5051160;28;20029;-59
2024/01/19 07:26:34;;;;;;;5.57;3.00;;;19.20;48.50;;;;;;5051928;28;20055;-59
2024/01/19 07:29:04;;;;;;;6.18;3.47;;;19.20;48.50;;;;;;5055349;28;20025;-59
2024/01/19 07:31:31;;;;;;;6.35;3.30;;;19.20;48.80;;;;;;5055182;28;20039;-59
2024/01/19 07:33:57;;;;;;;6.00;3.15;;;19.20;48.60;;;;;;5055406;28;20083;-58
2024/01/19 07:36:22;;;;;;;5.93;2.80;;;19.20;48.70;;;;;;5054776;28;20033;-58
2024/01/19 07:38:48;;;;;;;7.60;3.28;;;19.20;48.50;;;;;;5054667;28;20408;-59
2024/01/19 07:41:14;;;;;;;7.43;3.60;;;19.20;48.40;;;;;;5054992;28;20056;-57
2024/01/19 07:43:40;;;;;;;7.35;3.00;;;19.20;48.40;;;;;;5054951;28;20124;-59
2024/01/19 07:46:05;;;;;;;7.68;3.28;;;19.20;48.60;;;;;;5054010;28;20051;-58
2024/01/19 07:48:31;;;;;;;4.90;3.00;;;19.20;48.60;;;;;;5054491;28;20084;-60
2024/01/19 07:50:57;;;;;;;8.85;3.10;;;19.20;48.50;;;;;;5054612;28;20396;-59
2024/01/19 07:53:23;;;;;;;7.38;3.03;;;19.20;48.80;;;;;;5054247;28;20017;-58
2024/01/19 07:55:49;;;;;;;5.95;3.17;;;19.20;48.50;;;;;;5054120;28;20032;-52
2024/01/19 07:58:16;;;;;;;8.73;3.50;;;19.20;48.80;;;;;;5054195;28;20032;-54
2024/01/19 08:00:41;;;;;;;8.82;4.03;;;19.20;48.60;;;;;;5054158;28;20033;-53
2024/01/19 08:03:08;;;;;;;9.23;3.47;;;19.20;48.60;;;;;;5054076;28;20032;-58
2024/01/19 08:05:34;;;;;;;10.13;3.50;;;19.20;48.40;;;;;;5053743;28;20028;-55
2024/01/19 08:07:59;;;;;;;6.18;2.80;;;19.20;48.50;;;;;;5054037;28;20480;-52
2024/01/19 08:10:25;;;;;;;6.78;3.30;;;19.20;48.50;;;;;;5054133;28;20020;-55
2024/01/19 08:12:51;;;;;;;6.53;3.10;;;19.20;48.60;;;;;;5053906;28;20035;-55
2024/01/19 08:15:17;;;;;;;9.35;3.72;;;19.20;48.50;;;;;;5053641;28;20131;-56
2024/01/19 08:17:43;;;;;;;9.05;3.10;;;19.20;49.20;;;;;;5051216;28;20028;-59
2024/01/19 08:20:10;;;;;;;10.68;3.20;;;19.20;48.40;;;;;;5053963;28;20025;-58
2024/01/19 08:22:37;;;;;;;5.68;3.05;;;19.20;48.40;;;;;;5053783;28;20028;-59
2024/01/19 08:25:04;;;;;;;8.45;3.25;;;19.20;48.40;;;;;;5050743;28;20025;-59
2024/01/19 08:27:30;;;;;;;7.90;3.42;;;19.20;48.40;;;;;;5053635;28;20017;-59
2024/01/19 08:29:56;;;;;;;5.57;3.38;;;19.20;48.30;;;;;;5053695;28;20407;-59
2024/01/19 08:32:25;;;;;;;7.50;3.40;;;19.20;48.30;;;;;;5053623;28;20112;-59
2024/01/19 08:34:50;;;;;;;8.37;3.20;;;19.20;48.60;;;;;;5051248;28;20591;-59
2024/01/19 08:37:17;;;;;;;10.35;3.40;;;19.20;48.80;;;;;;5036496;28;20363;-61
2024/01/19 08:39:44;;;;;;;20.33;4.07;;;19.30;48.80;;;;;;5048353;28;20086;-58
2024/01/19 08:42:10;;;;;;;7.72;3.40;;;19.20;49.40;;;;;;5052636;28;20064;-60
2024/01/19 08:44:36;;;;;;;10.02;3.47;;;19.30;49.50;;;;;;5053442;28;20061;-60
2024/01/19 08:47:02;;;;;;;11.65;3.08;;;19.30;49.60;;;;;;5053086;28;20511;-60
2024/01/19 08:49:27;;;;;;;12.73;4.13;;;19.40;49.80;;;;;;5053165;28;20033;-60
2024/01/19 08:51:53;;;;;;;9.07;3.35;;;19.40;50.40;;;;;;5053419;28;20476;-60
2024/01/19 08:54:19;;;;;;;10.07;4.20;;;19.50;52.00;;;;;;5046986;28;20021;-61
2024/01/19 08:56:45;;;;;;;18.20;3.88;;;19.60;53.10;;;;;;5034944;28;20040;-61
2024/01/19 08:59:14;;;;;;;16.65;4.22;;;19.60;52.00;;;;;;5047147;28;20025;-59
2024/01/19 09:01:40;;;;;;;12.03;4.20;;;19.40;46.80;;;;;;5047919;28;20041;-61
2024/01/19 09:04:06;;;;;;;9.93;4.10;;;19.30;49.50;;;;;;5050082;28;20267;-60
2024/01/19 09:06:31;;;;;;;15.75;3.50;;;19.30;49.30;;;;;;5049841;28;20090;-58
2024/01/19 09:09:03;;;;;;;12.15;3.30;;;19.50;47.20;;;;;;5049936;28;20028;-59
2024/01/19 09:11:31;;;;;;;11.13;3.90;;;19.50;46.30;;;;;;5049980;28;20107;-60
2024/01/19 09:13:57;;;;;;;10.05;3.40;;;19.60;46.30;;;;;;5050183;28;20445;-60
2024/01/19 09:16:23;;;;;;;8.45;3.00;;;19.60;46.90;;;;;;5049883;28;20057;-59
2024/01/19 09:18:49;;;;;;;9.60;3.25;;;19.60;48.70;;;;;;5049796;28;20025;-60
2024/01/19 09:21:19;;;;;;;17.35;4.30;;;19.60;49.30;;;;;;5049858;28;20427;-61
2024/01/19 09:23:45;;;;;;;17.73;4.20;;;19.60;49.10;;;;;;5050391;28;20166;-61
2024/01/19 09:26:21;;;;;;;11.43;3.47;;;19.70;49.60;;;;;;5049914;28;20527;-61
2024/01/19 09:28:47;;;;;;;25.10;5.10;;;19.70;49.40;;;;;;5050678;28;20111;-61
2024/01/19 09:31:14;;;;;;;21.40;3.67;;;19.80;49.30;;;;;;5049845;28;20028;-61
2024/01/19 09:33:40;;;;;;;23.40;4.60;;;19.70;50.20;;;;;;5050732;28;20029;-61
2024/01/19 09:36:06;;;;;;;25.05;4.20;;;19.80;50.10;;;;;;5049859;28;20028;-61
2024/01/19 09:38:35;;;;;;;8.52;3.55;;;19.80;51.10;;;;;;5050438;28;20041;-61
2024/01/19 09:41:16;;;;;;;14.68;3.80;;;19.80;50.60;;;;;;5050008;28;20128;-61
2024/01/19 09:43:45;;;;;;;17.67;3.33;;;19.80;50.70;;;;;;5044614;28;20052;-59
2024/01/19 09:46:18;;;;;;;12.55;3.70;;;19.80;51.00;;;;;;5048034;28;20035;-61
2024/01/19 09:48:56;;;;;;;15.48;3.22;;;19.80;51.00;;;;;;5046651;28;20099;-61
2024/01/19 09:51:33;;;;;;;19.33;3.50;;;19.80;50.70;;;;;;5042517;28;20110;-60
2024/01/19 09:54:04;;;;;;;13.38;3.47;;;19.80;51.00;;;;;;5045799;28;20035;-60
2024/01/19 09:56:30;;;;;;;19.48;3.40;;;19.80;51.10;;;;;;5047353;28;20059;-60
2024/01/19 09:58:59;;;;;;;13.73;3.75;;;19.80;51.00;;;;;;5047314;28;20028;-60
2024/01/19 10:01:25;;;;;;;12.05;4.20;;;19.80;50.90;;;;;;5046972;28;20033;-58
2024/01/19 10:03:57;;;;;;;15.60;3.95;;;19.80;50.90;;;;;;5045254;28;20139;-59
2024/01/19 10:06:23;;;;;;;25.67;5.55;;;20.00;51.00;;;;;;5043828;28;20029;-59
2024/01/19 10:08:54;;;;;;;18.42;5.55;;;19.90;51.10;;;;;;5046234;28;20039;-60
2024/01/19 10:11:21;;;;;;;19.48;5.57;;;19.90;51.30;;;;;;5046158;28;20106;-61
2024/01/19 10:13:47;;;;;;;20.58;5.00;;;19.90;51.20;;;;;;5047081;28;20384;-59
2024/01/19 10:16:12;;;;;;;19.75;5.47;;;20.00;51.40;;;;;;5047843;28;20033;-60
2024/01/19 10:18:40;;;;;;;20.98;4.90;;;20.00;51.50;;;;;;5047991;28;20826;-61
2024/01/19 10:21:06;;;;;;;23.20;5.28;;;20.00;51.30;;;;;;5048146;28;20048;-60
2024/01/19 10:23:32;;;;;;;16.10;5.05;;;20.00;51.30;;;;;;5046747;28;20025;-60
2024/01/19 10:26:12;;;;;;;21.17;5.72;;;20.10;50.80;;;;;;5047416;28;20588;-60
2024/01/19 10:28:39;;;;;;;25.73;6.55;;;20.10;51.20;;;;;;5047038;28;20052;-60
2024/01/19 10:31:16;;;;;;;20.10;5.57;;;20.10;51.10;;;;;;5046447;28;20043;-59
2024/01/19 10:33:53;;;;;;;24.52;5.70;;;20.10;51.00;;;;;;5047734;28;20033;-61
2024/01/19 10:36:19;;;;;;;24.20;5.88;;;20.10;51.10;;;;;;5047386;28;20541;-61
2024/01/19 10:38:45;;;;;;;18.33;5.47;;;20.10;51.20;;;;;;5047655;28;20031;-62
2024/01/19 10:41:24;;;;;;;18.65;5.32;;;20.00;50.90;;;;;;5046667;28;20048;-60
2024/01/19 10:43:50;;;;;;;18.83;5.63;;;20.00;49.80;;;;;;5043422;28;20029;-60
2024/01/19 10:46:29;;;;;;;22.67;5.18;;;19.90;49.60;;;;;;5045900;28;20048;-58
2024/01/19 10:49:04;;;;;;;16.58;4.72;;;19.90;49.80;;;;;;5046300;28;20029;-60
2024/01/19 10:51:30;;;;;;;21.35;4.95;;;19.90;50.10;;;;;;5043570;28;20083;-59
2024/01/19 10:54:02;;;;;;;19.27;5.00;;;19.90;50.20;;;;;;5047325;28;20024;-60
2024/01/19 10:56:28;;;;;;;16.52;4.40;;;19.90;50.40;;;;;;5044084;28;20203;-60
2024/01/19 10:58:54;;;;;;;18.17;4.80;;;19.90;50.40;;;;;;5047467;28;20037;-60
2024/01/19 11:01:19;;;;;;;18.95;4.82;;;19.90;50.40;;;;;;5047432;28;20044;-58
2024/01/19 11:03:45;;;;;;;20.73;4.85;;;19.90;50.50;;;;;;5045521;28;20662;-60
2024/01/19 11:06:12;;;;;;;22.50;5.05;;;19.90;50.60;;;;;;5046111;28;20472;-58
2024/01/19 11:08:38;;;;;;;17.92;5.60;;;20.00;50.60;;;;;;5042372;28;20033;-60
2024/01/19 11:11:06;;;;;;;18.95;4.63;;;20.00;50.70;;;;;;5046352;28;20048;-60
2024/01/19 11:13:41;;;;;;;20.63;5.28;;;20.00;50.80;;;;;;5047113;28;20104;-56
2024/01/19 11:16:12;;;;;;;17.55;5.45;;;20.10;50.90;;;;;;5043331;28;20500;-60
2024/01/19 11:18:38;;;;;;;17.60;5.40;;;20.10;50.90;;;;;;5045996;28;20090;-60
2024/01/19 11:21:08;;;;;;;16.17;4.95;;;20.10;50.80;;;;;;5047394;28;20480;-60
2024/01/19 11:23:34;;;;;;;16.13;4.93;;;20.10;50.80;;;;;;5047046;28;20496;-60
2024/01/19 11:26:41;;;;;;;17.88;4.90;;;20.10;50.90;;;;;;5044588;28;20133;-60
2024/01/19 11:29:20;;;;;;;17.13;5.10;;;20.10;50.90;;;;;;5045753;28;20037;-60
2024/01/19 11:31:47;;;;;;;16.35;5.13;;;20.10;50.90;;;;;;5043404;28;20143;-58
2024/01/19 11:34:41;;;;;;;15.48;4.90;;;20.10;50.90;;;;;;5047023;28;20037;-60
2024/01/19 11:37:08;;;;;;;14.75;4.40;;;20.10;50.90;;;;;;5046688;28;20415;-60
2024/01/19 11:39:52;;;;;;;15.85;4.47;;;20.10;51.00;;;;;;5046962;28;20566;-60
2024/01/19 11:42:36;;;;;;;15.73;4.82;;;20.10;51.00;;;;;;5045286;28;20099;-60
2024/01/19 11:45:02;;;;;;;18.65;4.80;;;20.10;51.00;;;;;;5046395;28;20427;-60
2024/01/19 11:47:37;;;;;;;16.48;4.88;;;20.20;51.10;;;;;;5045963;28;20040;-60
2024/01/19 11:50:05;;;;;;;13.20;4.55;;;20.20;51.10;;;;;;5045756;28;20021;-57
2024/01/19 11:52:35;;;;;;;12.40;4.43;;;20.10;51.20;;;;;;5046968;28;20488;-60
2024/01/19 11:55:26;;;;;;;10.60;3.67;;;20.10;51.10;;;;;;5045572;28;20021;-58
2024/01/19 11:57:53;;;;;;;15.30;4.88;;;20.10;51.20;;;;;;5047146;28;20025;-60
2024/01/19 12:00:19;;;;;;;15.57;4.78;;;20.10;51.20;;;;;;5046970;28;20029;-60
2024/01/19 12:02:46;;;;;;;14.27;4.60;;;20.10;51.30;;;;;;5046557;28;20037;-60
2024/01/19 12:05:12;;;;;;;15.65;4.75;;;20.10;51.30;;;;;;5046968;28;20052;-60
2024/01/19 12:07:39;;;;;;;16.25;4.60;;;20.10;51.30;;;;;;5045035;28;20075;-59
2024/01/19 12:10:10;;;;;;;20.42;4.13;;;20.10;51.50;;;;;;5045593;28;20787;-57
2024/01/19 12:12:37;;;;;;;14.93;5.25;;;20.10;51.80;;;;;;5047662;28;20032;-60
2024/01/19 12:15:04;;;;;;;19.20;5.32;;;20.20;52.20;;;;;;5049923;28;20033;-60
2024/01/19 12:17:31;;;;;;;18.25;6.05;;;20.10;51.00;;;;;;5050346;28;20032;-60
2024/01/19 12:19:57;;;;;;;16.58;5.40;;;20.10;50.70;;;;;;5050979;28;20036;-60
2024/01/19 12:22:23;;;;;;;14.63;4.85;;;20.10;50.50;;;;;;5050593;28;20056;-61
2024/01/19 12:24:49;;;;;;;15.82;4.85;;;20.10;50.50;;;;;;5050519;28;20669;-61
2024/01/19 12:27:18;;;;;;;17.67;5.35;;;20.00;50.50;;;;;;5050555;28;20044;-61
2024/01/19 12:29:44;;;;;;;22.30;5.53;;;19.90;50.60;;;;;;5050799;28;20024;-60
2024/01/19 12:32:15;;;;;;;18.80;6.25;;;19.90;50.30;;;;;;5049484;28;20033;-60
2024/01/19 12:34:55;;;;;;;20.08;5.43;;;19.90;49.60;;;;;;5050345;28;20017;-60
2024/01/19 12:37:21;;;;;;;14.90;5.57;;;19.90;49.60;;;;;;5049610;28;20211;-60
2024/01/19 12:39:46;;;;;;;17.40;5.50;;;19.90;49.90;;;;;;5049821;28;20099;-60
2024/01/19 12:42:12;;;;;;;14.77;5.85;;;20.00;50.00;;;;;;5049861;28;20028;-60